Latest Coastal Weather Observations for Truscott

IDD60701

Issued at 3:21 am CST Thursday 2 April 2015 (issued every 10 minutes, with the page automatically refreshed every 10 minutes)

About coastal observations | Map of coastal stations | Coastal observations for NT | Marine services | Other Formats
Station Details ID: 001020 Name: TRUSCOTT Lat: -14.09 Lon: 126.39 Height: 51.0 m
Data from the previous 72 hours. | See also: Recent months at Truscott
Date/Time
CST
Temp

°C
Wind Pressure Rain
since 9am
mm
Weather Cloud Vis
km
Sea
Height
m
Swell
Dir
 
Speed
knots
Gust
knots
hPa Trend Height
m
Period
s
Dir
02/03:00am 27.8 SW 5 6 1008.5 - 0.0 - - 10 - - - -
02/02:30am 28.1 SW 4 5 1008.6 - 0.0 - - 10 - - - -
02/02:00am 28.2 SW 5 6 1009.0 - 0.0 - - 10 - - - -
02/01:30am 28.3 WSW 4 6 1009.0 - 0.0 - - 10 - - - -
02/01:00am 28.4 SW 5 7 1010.0 - 0.0 - - 10 - - - -
02/12:30am 28.6 SW 5 6 1010.4 - 0.0 - - 7 - - - -
02/12:00am 28.7 SW 4 6 1010.6 - 0.0 - - 6 - - - -
 
Date/Time
CST
Temp

°C
Wind Pressure Rain
since 9am
mm
Weather Cloud Vis
km
Sea
Height
m
Swell
Dir
 
Speed
knots
Gust
knots
hPa Trend Height
m
Period
s
Dir
01/11:30pm 28.8 WSW 5 7 1010.8 - 0.0 - - 10 - - - -
01/11:00pm 28.9 WSW 5 6 1010.9 - 0.0 - - 10 - - - -
01/10:30pm 28.9 WSW 4 5 1010.3 - 0.0 - - 10 - - - -
01/10:00pm 28.0 W 1 4 1010.6 - 0.0 - - 10 - - - -
01/09:31pm 29.4 WSW 4 6 1010.3 - 0.0 - - 10 - - - -
01/09:30pm 29.4 WSW 4 6 1010.3 - 0.0 - - 10 - - - -
01/09:13pm 29.4 WSW 4 6 1010.1 - 0.0 - - 5 - - - -
01/09:00pm 29.4 W 4 6 1009.9 - 0.0 - - 10 - - - -
01/08:30pm 29.5 W 4 5 1009.5 - 0.0 - - 10 - - - -
01/08:00pm 29.9 WSW 5 6 1009.5 - 0.0 - - 10 - - - -
01/07:30pm 30.4 WSW 4 7 1008.9 - 0.0 - - 10 - - - -
01/07:00pm 30.4 NW 4 5 1008.8 - 0.0 - - 10 - - - -
01/06:30pm 31.0 NNW 5 6 1008.4 - 0.0 - - 10 - - - -
01/06:00pm 31.8 NNW 5 8 1008.2 - 0.0 - - 10 - - - -
01/05:30pm 32.5 NNW 5 7 1008.2 - 0.0 - - 10 - - - -
01/05:00pm 32.3 NNW 6 8 1008.1 - 0.0 - - 10 - - - -
01/04:30pm 32.7 NNW 6 8 1007.6 - 0.0 - - 10 - - - -
01/04:00pm 32.9 NNW 7 10 1008.5 - 0.0 - - 10 - - - -
01/03:30pm 32.9 N 8 11 1008.8 - 0.0 - - 10 - - - -
01/03:00pm 33.0 N 8 11 1009.2 - 0.0 - - 10 - - - -
01/02:30pm 32.9 NNW 7 11 1009.6 - 0.0 - - 10 - - - -
01/02:00pm 33.6 WNW 7 10 1010.0 - 0.0 - - 10 - - - -
01/01:30pm 33.3 WNW 8 11 1010.0 - 0.0 - - 10 - - - -
01/01:00pm 33.1 W 6 11 1010.9 - 0.0 - Partly cloudy 10 - - - -
01/12:30pm 33.4 W 6 9 1011.5 - 0.0 - Partly cloudy 10 - - - -
01/12:00pm 33.0 WSW 5 8 1012.1 - 0.0 - Partly cloudy 10 - - - -
01/11:30am 32.8 S 4 6 1012.6 - 0.0 - - 10 - - - -
01/11:00am 32.2 SW 4 6 1013.0 - 0.0 - Partly cloudy 10 - - - -
01/10:30am 31.5 SSW 5 8 1012.6 - 0.0 - Mostly clear 10 - - - -
01/10:00am 30.5 SW 4 6 1013.1 - 0.0 - Cloudy 10 - - - -
01/09:30am 30.0 SSW 5 7 1013.1 - 0.0 - Partly cloudy 10 - - - -
01/09:00am 29.2 SSW 5 6 1013.0 - 0.0 - Partly cloudy 10 - - - -
01/08:30am 28.2 SSW 5 7 1012.7 - 0.0 - Partly cloudy 10 - - - -
01/08:00am 28.1 SSW 5 6 1012.4 - 0.0 - Partly cloudy 10 - - - -
01/07:30am 25.9 S 4 5 1011.6 - 0.0 - Mostly clear 10 - - - -
01/07:00am 25.9 S 1 3 1011.8 - 0.0 - - 8 - - - -
01/06:30am 26.3 S 3 4 1011.5 - 0.0 - - 10 - - - -
01/06:00am 26.9 SSW 4 6 1011.4 - 0.0 - - 10 - - - -
01/05:30am 26.9 SSW 4 5 1011.2 - 0.0 - - 10 - - - -
01/05:00am 26.6 SSW 4 5 1010.9 - 0.0 - - 10 - - - -
01/04:30am 26.4 S 4 6 1010.4 - 0.0 - - 10 - - - -
01/04:00am 26.7 SSW 4 5 1010.8 - 0.0 - - 9 - - - -
01/03:44am 26.1 SSW 2 3 1010.8 - 0.0 - - 10 - - - -
01/03:32am 26.6 S 4 5 1010.7 - 0.0 - - 5 - - - -
01/03:30am 27.0 SSW 4 5 1010.7 - 0.0 - - 7 - - - -
01/03:00am 27.2 SSW 5 6 1010.8 - 0.0 - - 10 - - - -
01/02:30am 27.1 WSW 3 5 1010.9 - 0.0 - - 10 - - - -
01/02:00am 26.4 CALM 0 0 1011.2 - 0.0 - - 10 - - - -
01/01:30am 26.5 CALM 0 0 1011.0 - 0.0 - - 10 - - - -
01/01:00am 27.1 CALM 0 0 1011.9 - 0.0 - - 10 - - - -
01/12:30am 26.7 CALM 0 0 1012.1 - 0.0 - - 10 - - - -
01/12:00am 26.8 CALM 0 0 1012.5 - 0.0 - - 10 - - - -
 
Date/Time
CST
Temp

°C
Wind Pressure Rain
since 9am
mm
Weather Cloud Vis
km
Sea
Height
m
Swell
Dir
 
Speed
knots
Gust
knots
hPa Trend Height
m
Period
s
Dir
31/11:30pm 26.7 CALM 0 0 1012.5 - 0.0 - - 10 - - - -
31/11:00pm 26.9 CALM 0 0 1012.5 - 0.0 - - 10 - - - -
31/10:30pm 26.8 CALM 0 0 1011.8 - 0.0 - - 10 - - - -
31/10:00pm 27.0 CALM 0 0 1012.3 - 0.0 - - 10 - - - -
31/09:30pm 27.2 CALM 0 0 1012.1 - 0.0 - - 10 - - - -
31/09:00pm 27.6 CALM 0 0 1011.8 - 0.0 - - 10 - - - -
31/08:30pm 27.9 NE 3 4 1011.4 - 0.0 - - 10 - - - -
31/08:00pm 28.1 NNE 3 4 1011.3 - 0.0 - - 10 - - - -
31/07:30pm 28.9 N 3 4 1010.3 - 0.0 - - 10 - - - -
31/07:00pm 30.0 N 4 6 1010.8 - 0.0 - - 10 - - - -
31/06:30pm 31.0 N 5 6 1010.5 - 0.0 - - 10 - - - -
31/06:00pm 31.8 N 6 8 1010.2 - 0.0 - - 10 - - - -
31/05:30pm 32.5 N 4 7 1010.0 - 0.0 - - 10 - - - -
31/05:00pm 32.6 N 6 9 1009.9 - 0.0 - - 10 - - - -
31/04:30pm 32.7 N 6 9 1009.2 - 0.0 - - 10 - - - -
31/04:00pm 32.7 NW 7 11 1009.8 - 0.0 - - 10 - - - -
31/03:30pm 32.7 NW 7 10 1010.0 - 0.0 - - 10 - - - -
31/03:00pm 33.0 N 7 10 1010.2 - 0.0 - - 10 - - - -
31/02:30pm 33.8 ESE 5 9 1010.5 - 0.0 - - 10 - - - -
31/02:00pm 32.9 NNW 5 8 1011.0 - 0.0 - - 10 - - - -
31/01:30pm 33.2 N 8 22 1010.7 - 0.0 - - 10 - - - -
31/01:00pm 33.1 ENE 7 11 1011.9 - 0.0 - - 10 - - - -
31/12:30pm 33.1 E 5 10 1012.4 - 0.0 - - 10 - - - -
31/12:00pm 32.5 ESE 6 10 1013.0 - 0.0 - Partly cloudy 10 - - - -
31/11:30am 31.9 ESE 4 7 1013.5 - 0.0 - Partly cloudy 10 - - - -
31/11:00am 31.5 S 4 6 1013.6 - 0.0 - Partly cloudy 10 - - - -
31/10:30am 30.5 S 4 7 1013.2 - 0.0 - Mostly clear 10 - - - -
31/10:00am 30.2 SW 5 7 1013.9 - 0.0 - - 10 - - - -
31/09:30am 29.7 SSW 5 7 1013.8 - 0.0 - - 10 - - - -
31/09:00am 29.1 SSW 5 6 1013.8 - 0.0 - - 10 - - - -
31/08:30am 28.1 SSW 4 5 1013.5 - 0.0 - - 10 - - - -
31/08:00am 26.4 CALM 0 0 1013.2 - 0.0 - - 10 - - - -
31/07:30am 25.3 CALM 0 0 1012.4 - 0.0 - - 10 - - - -
31/07:00am 25.0 ESE 3 4 1012.6 - 0.0 - - 10 - - - -
31/06:30am 25.1 CALM 0 0 1012.2 - 0.0 - - 10 - - - -
31/06:00am 25.1 CALM 0 0 1012.0 - 0.0 - - 10 - - - -
31/05:30am 25.2 CALM 0 0 1011.7 - 0.0 - - 10 - - - -
31/05:00am 25.5 SSW 2 3 1011.5 - 0.0 - - 10 - - - -
31/04:30am 25.7 SSW 2 4 1010.6 - 0.0 - - 10 - - - -
31/04:00am 26.3 SSW 4 5 1011.1 - 0.0 - - 10 - - - -
31/03:30am 25.8 CALM 0 1 1011.2 - 0.0 - - 10 - - - -
31/03:00am 26.6 S 4 5 1011.4 - 0.0 - - 10 - - - -
31/02:30am 26.7 SSW 6 7 1011.6 - 0.0 - - 10 - - - -
31/02:00am 26.9 SSW 4 5 1011.8 - 0.0 - - 10 - - - -
31/01:30am 26.2 S 3 4 1011.5 - 0.0 - - 7 - - - -
31/01:00am 26.0 CALM 0 0 1012.1 - 0.0 - - 10 - - - -
31/12:30am 26.2 CALM 0 0 1012.5 - 0.0 - - 10 - - - -
31/12:00am 26.2 CALM 0 0 1012.8 - 0.0 - - 10 - - - -
 
Date/Time
CST
Temp

°C
Wind Pressure Rain
since 9am
mm
Weather Cloud Vis
km
Sea
Height
m
Swell
Dir
 
Speed
knots
Gust
knots
hPa Trend Height
m
Period
s
Dir
30/11:30pm 26.4 CALM 0 0 1013.0 - 0.0 - - 10 - - - -
30/11:00pm 26.7 CALM 0 0 1013.3 - 0.0 - - 10 - - - -
30/10:30pm 26.8 CALM 0 0 1012.8 - 0.0 - - 10 - - - -
30/10:00pm 26.9 CALM 0 0 1013.3 - 0.0 - - 10 - - - -
30/09:30pm 27.4 CALM 0 0 1013.2 - 0.0 - - 10 - - - -
30/09:00pm 27.5 CALM 0 1 1012.8 - 0.0 - - 10 - - - -
30/08:30pm 27.8 NNE 3 4 1012.2 - 0.0 - - 10 - - - -
30/08:00pm 28.1 N 1 3 1011.7 - 0.0 - - 10 - - - -
30/07:30pm 28.6 N 3 4 1010.8 - 0.0 - - 10 - - - -
30/07:00pm 29.5 N 4 5 1011.2 - 0.0 - - 10 - - - -
30/06:30pm 30.1 N 6 8 1011.0 - 0.0 - - 10 - - - -
30/06:00pm 30.5 N 6 9 1010.7 - 0.0 - - 10 - - - -
30/05:30pm 31.1 NNW 6 10 1010.7 - 0.0 - - 10 - - - -
30/05:00pm 31.3 N 7 9 1010.6 - 0.0 - - 10 - - - -
30/04:30pm 31.4 N 7 10 1010.0 - 0.0 - - 10 - - - -
30/04:00pm 31.9 N 7 11 1010.6 - 0.0 - Partly cloudy 10 - - - -
30/03:30pm 32.2 N 6 10 1010.6 - 0.0 - Partly cloudy 10 - - - -
30/03:00pm 32.1 NNW 6 8 1010.9 - 0.0 - Partly cloudy 10 - - - -
30/02:30pm 32.3 N 7 12 1011.3 - 0.0 - - 10 - - - -
30/02:00pm 32.2 NE 7 14 1011.6 - 0.0 - - 10 - - - -
30/01:30pm 32.8 ENE 7 11 1011.3 - 0.0 - - 10 - - - -
30/01:00pm 32.6 NE 7 10 1012.3 - 0.0 - - 10 - - - -
30/12:30pm 32.5 ENE 8 11 1012.6 - 0.0 - - 10 - - - -
30/12:00pm 32.4 ENE 5 8 1012.8 - 0.0 - - 10 - - - -
30/11:30am 32.1 N 4 7 1013.2 - 0.0 - - 10 - - - -
30/11:00am 31.4 SSE 4 5 1013.4 - 0.0 - - 10 - - - -
30/10:30am 30.5 S 3 6 1012.9 - 0.0 - - 10 - - - -
30/10:00am 30.1 SW 5 6 1013.5 - 0.0 - - 10 - - - -
30/09:30am 29.2 SSW 5 8 1013.4 - 0.0 - - 10 - - - -
30/09:00am 28.3 SW 6 8 1013.3 - 0.0 - - 10 - - - -
30/08:30am 27.6 SSW 6 7 1013.1 - 0.0 - - 10 - - - -
30/08:00am 26.6 SSW 6 8 1012.7 - 0.0 - - 10 - - - -
30/07:30am 25.9 S 5 6 1011.8 - 0.0 - - 10 - - - -
30/07:00am 25.9 SSW 4 6 1012.2 - 0.0 - - 10 - - - -
30/06:30am 26.0 S 6 7 1011.9 - 0.0 - - 10 - - - -
30/06:00am 25.8 S 5 6 1011.6 - 0.0 - - 10 - - - -
30/05:30am 25.6 S 5 6 1011.3 - 0.0 - - 10 - - - -
30/05:00am 25.2 S 4 5 1011.1 - 0.0 - - 10 - - - -

Other Formats:

Comma delimited format used in spreadsheet applications
http://www.bom.gov.au/fwo/IDD60701/IDD60701.95101.axf

JavaScript Object Notation format (JSON) in row-major order
http://www.bom.gov.au/fwo/IDD60701/IDD60701.95101.json